Weather at Walnut Ridge Regional Airport

Public forecast

Using degrees Fahrenheit for public forecast. Weather courtesy of forecast.io.

Current aviation weather report (METAR) for Walnut Ridge Regional Airport

Retrieved 2020/09/29 12:56 UTC (43 minutes ago):

KARG 291256Z AUTO 00000KT 10SM CLR 11/09 A3006 RMK AO2 SLP178 T01110089

Closest aviation forecast (TAF) to Walnut Ridge Regional Airport

Closest forecast is Jonesboro Municipal Airport, 22.2 nm (41.1 km) SE. Retrieved 2020/09/29 12:33 UTC (1 hour ago):

TAF KJBR 291130Z 2912/3012 30007KT P6SM FEW250 FM291800 28010G15KT P6SM FEW250 FM292100 29008KT P6SM SCT250 FM300100 27003KT P6SM SCT250 FM300900 24003KT P6SM FEW250